createdAt,value
2017-08-16T05:34:59.927Z,19.5
2017-08-16T05:36:01.344Z,19.4
2017-08-16T05:37:22.870Z,19.4
2017-08-16T05:38:24.283Z,19.3
2017-08-16T05:39:45.786Z,19.5
2017-08-16T05:40:47.202Z,19.5
2017-08-16T05:42:08.705Z,19.6
2017-08-16T05:43:10.123Z,19.6
2017-08-16T05:44:31.646Z,19.7
2017-08-16T05:45:33.062Z,19.9
2017-08-16T05:46:54.573Z,19.9
2017-08-16T05:47:55.984Z,20.0
2017-08-16T05:49:17.507Z,20.0
2017-08-16T05:50:18.925Z,20.1
2017-08-16T05:51:40.433Z,20.1
2017-08-16T05:52:41.849Z,20.1
2017-08-16T05:54:03.815Z,20.1
2017-08-16T05:55:05.200Z,20.2
2017-08-16T05:56:26.708Z,20.0
2017-08-16T05:57:28.124Z,20.1
2017-08-16T05:58:49.651Z,20.1
2017-08-16T05:59:51.067Z,20.1
2017-08-16T06:01:12.574Z,20.1
2017-08-16T06:02:13.991Z,20.2
2017-08-16T06:03:35.516Z,20.2
2017-08-16T06:04:36.934Z,20.1
2017-08-16T06:05:58.448Z,20.0
2017-08-16T06:06:59.859Z,20.1
2017-08-16T06:08:21.386Z,20.0
2017-08-16T06:09:22.802Z,20.1
2017-08-16T06:10:44.314Z,20.4
2017-08-16T06:11:45.731Z,20.4
2017-08-16T06:13:07.251Z,20.6
2017-08-16T06:14:08.695Z,20.5
2017-08-16T06:15:30.180Z,20.8
2017-08-16T06:16:31.595Z,20.9
2017-08-16T06:17:53.272Z,20.8
2017-08-16T06:18:54.687Z,21.1
2017-08-16T06:20:16.195Z,21.4
2017-08-16T06:21:17.613Z,21.6
2017-08-16T06:22:39.119Z,22.0
2017-08-16T06:23:40.539Z,22.2
2017-08-16T06:25:02.073Z,22.4
2017-08-16T06:26:03.490Z,22.7
2017-08-16T06:27:25.002Z,22.9
2017-08-16T06:28:26.424Z,23.0
2017-08-16T06:29:48.000Z,23.2
2017-08-16T06:30:50.965Z,23.5
2017-08-16T06:32:12.340Z,23.7
2017-08-16T06:33:13.760Z,23.7
2017-08-16T06:34:35.290Z,23.8
2017-08-16T06:35:36.711Z,23.8
2017-08-16T06:36:58.221Z,23.7
2017-08-16T06:37:59.642Z,23.6
2017-08-16T06:39:21.170Z,23.7
2017-08-16T06:40:22.590Z,23.7
2017-08-16T06:41:44.098Z,23.6
2017-08-16T06:42:45.523Z,23.6
2017-08-16T06:44:07.165Z,23.7
2017-08-16T06:45:08.587Z,23.8
2017-08-16T06:46:30.098Z,24.2
2017-08-16T06:47:31.518Z,24.4
2017-08-16T06:48:53.051Z,24.8
2017-08-16T06:49:54.473Z,24.9
2017-08-16T06:51:16.000Z,25.1
2017-08-16T06:52:17.460Z,25.1
2017-08-16T06:53:38.997Z,25.4
2017-08-16T06:54:40.425Z,25.4
2017-08-16T06:56:01.960Z,25.6
2017-08-16T06:57:03.363Z,25.7
2017-08-16T06:58:24.899Z,25.8
2017-08-16T06:59:26.322Z,25.9
2017-08-16T07:00:47.840Z,26.1
2017-08-16T07:01:49.265Z,26.1
2017-08-16T07:03:10.797Z,25.9
2017-08-16T07:04:12.220Z,26.1
2017-08-16T07:05:33.737Z,25.9
2017-08-16T07:06:35.159Z,25.8
2017-08-16T07:07:56.695Z,25.8
2017-08-16T07:08:58.120Z,25.3
2017-08-16T07:10:20.128Z,25.4
2017-08-16T07:11:21.548Z,25.1
2017-08-16T07:12:43.063Z,25.0
2017-08-16T07:13:44.483Z,25.0
2017-08-16T07:15:06.026Z,25.1
2017-08-16T07:16:07.448Z,25.0
2017-08-16T07:17:28.959Z,24.8
2017-08-16T07:18:30.380Z,24.8
2017-08-16T07:19:51.990Z,24.8
2017-08-16T07:20:53.415Z,24.7
2017-08-16T07:22:15.923Z,24.8
2017-08-16T07:23:17.347Z,24.9
2017-08-16T07:24:38.880Z,24.5
2017-08-16T07:25:40.304Z,24.3
2017-08-16T07:27:01.811Z,24.2
2017-08-16T07:28:03.232Z,24.0
2017-08-16T07:29:24.763Z,23.8
2017-08-16T07:30:26.200Z,23.6
2017-08-16T07:31:47.711Z,23.3
2017-08-16T07:32:49.132Z,23.2
2017-08-16T07:34:10.659Z,23.1
2017-08-16T07:35:12.081Z,22.8
2017-08-16T07:36:33.594Z,22.7
2017-08-16T07:37:35.014Z,22.6
2017-08-16T07:38:56.769Z,22.8
2017-08-16T07:39:58.188Z,22.8
2017-08-16T07:41:19.698Z,22.8
2017-08-16T07:42:21.118Z,22.9
2017-08-16T07:43:42.647Z,22.9
2017-08-16T07:44:44.068Z,22.9
2017-08-16T07:46:05.578Z,23.1
2017-08-16T07:47:06.998Z,23.2
2017-08-16T07:48:28.528Z,23.4
2017-08-16T07:49:29.950Z,23.5
2017-08-16T07:50:51.461Z,23.7
2017-08-16T07:51:52.883Z,23.9
2017-08-16T07:53:14.411Z,24.1
2017-08-16T07:54:15.833Z,24.2
2017-08-16T07:55:37.344Z,24.2
2017-08-16T07:56:38.763Z,24.2
2017-08-16T07:58:00.274Z,24.1
2017-08-16T07:59:01.697Z,24.0
2017-08-16T08:00:23.231Z,23.9
2017-08-16T08:01:24.650Z,23.9
2017-08-16T08:02:46.181Z,23.7
2017-08-16T08:03:47.587Z,23.7
2017-08-16T08:05:09.120Z,23.8
2017-08-16T08:06:10.539Z,23.7
2017-08-16T08:07:32.268Z,23.6
2017-08-16T08:08:33.687Z,23.4
2017-08-16T08:09:55.219Z,23.2
2017-08-16T08:10:56.644Z,23.0
2017-08-16T08:12:18.150Z,23.1
2017-08-16T08:13:19.571Z,23.1
2017-08-16T08:14:41.108Z,23.2
2017-08-16T08:15:42.527Z,23.3
2017-08-16T08:17:04.053Z,23.6
2017-08-16T08:18:05.455Z,23.7
2017-08-16T08:19:26.989Z,23.9
2017-08-16T08:20:28.409Z,24.0
2017-08-16T08:21:49.919Z,24.1
2017-08-16T08:22:51.339Z,24.3
2017-08-16T08:24:13.204Z,24.4
2017-08-16T08:25:14.624Z,24.5
2017-08-16T08:26:36.132Z,24.6
2017-08-16T08:27:37.794Z,24.6
2017-08-16T08:28:59.328Z,24.7
2017-08-16T08:30:00.750Z,24.6
2017-08-16T08:31:22.505Z,24.9
2017-08-16T08:32:24.076Z,25.0
2017-08-16T08:33:45.608Z,25.0
2017-08-16T08:34:47.082Z,24.9
2017-08-16T08:36:08.632Z,24.8
2017-08-16T08:37:10.157Z,25.0
2017-08-16T08:38:31.666Z,24.8
2017-08-16T08:39:33.084Z,24.8
2017-08-16T08:40:54.637Z,24.7
2017-08-16T08:41:56.111Z,24.8
2017-08-16T08:43:17.678Z,24.6
2017-08-16T08:44:19.097Z,24.6
2017-08-16T08:45:40.649Z,24.5
2017-08-16T08:46:42.072Z,24.4
2017-08-16T08:48:03.590Z,24.4
2017-08-16T08:49:05.058Z,24.2
2017-08-16T08:50:26.604Z,24.0
2017-08-16T08:51:28.041Z,24.1
2017-08-16T08:52:49.548Z,24.1
2017-08-16T08:53:50.996Z,23.9
2017-08-16T08:55:12.546Z,24.0
2017-08-16T08:56:13.961Z,24.1
2017-08-16T08:57:35.472Z,24.2
2017-08-16T08:58:36.891Z,24.3
2017-08-16T08:59:58.425Z,24.5
2017-08-16T09:01:39.349Z,24.5
2017-08-16T09:03:20.233Z,24.4
2017-08-16T09:04:21.652Z,24.4
2017-08-16T09:05:43.176Z,24.4
2017-08-16T09:06:44.598Z,24.2
2017-08-16T09:08:06.593Z,24.1
2017-08-16T09:09:08.024Z,24.1
2017-08-16T09:10:29.561Z,23.6
2017-08-16T09:11:30.979Z,23.8
2017-08-16T09:12:52.496Z,23.5
2017-08-16T09:13:53.915Z,23.6
2017-08-16T09:15:15.443Z,23.5
2017-08-16T09:16:16.862Z,23.6
2017-08-16T09:17:38.556Z,23.6
2017-08-16T09:18:39.975Z,23.8
2017-08-16T09:20:01.505Z,23.8
2017-08-16T09:21:02.924Z,23.9
2017-08-16T09:22:24.435Z,24.1
2017-08-16T09:23:25.852Z,23.9
2017-08-16T09:24:47.387Z,23.8
2017-08-16T09:25:48.806Z,23.7
2017-08-16T09:27:10.320Z,23.7
2017-08-16T09:28:11.736Z,23.7
2017-08-16T09:29:33.274Z,23.7
2017-08-16T09:30:34.692Z,23.8
2017-08-16T09:31:56.204Z,23.8
2017-08-16T09:32:57.622Z,23.9
2017-08-16T09:34:19.129Z,23.9
2017-08-16T09:35:20.548Z,24.1
2017-08-16T09:36:42.077Z,24.0
2017-08-16T09:37:43.495Z,24.0
2017-08-16T09:39:05.010Z,23.9
2017-08-16T09:40:06.428Z,23.9
2017-08-16T09:41:27.955Z,24.0
2017-08-16T09:42:29.375Z,24.0
2017-08-16T09:43:50.880Z,24.2
2017-08-16T09:44:52.301Z,24.3
2017-08-16T09:46:13.830Z,24.6
2017-08-16T09:47:15.249Z,24.6
2017-08-16T09:48:36.939Z,24.6
2017-08-16T09:49:38.358Z,24.8
2017-08-16T09:50:59.887Z,24.7
2017-08-16T09:52:01.307Z,24.5
2017-08-16T09:53:22.818Z,24.3
2017-08-16T09:54:24.237Z,24.4
2017-08-16T09:55:45.766Z,24.4
2017-08-16T09:56:47.185Z,24.5
2017-08-16T09:58:08.692Z,24.5
2017-08-16T09:59:10.113Z,24.5
2017-08-16T10:00:31.794Z,24.6
2017-08-16T10:01:33.213Z,24.6
2017-08-16T10:02:54.721Z,24.6
2017-08-16T10:03:56.143Z,24.7
2017-08-16T10:05:17.708Z,24.7
2017-08-16T10:06:19.159Z,24.8
2017-08-16T10:07:40.829Z,24.8
2017-08-16T10:08:42.249Z,24.7
2017-08-16T10:10:03.781Z,24.9
2017-08-16T10:11:05.201Z,25.1
2017-08-16T10:12:26.714Z,25.1
2017-08-16T10:13:28.132Z,25.2
2017-08-16T10:14:49.664Z,25.2
2017-08-16T10:15:51.083Z,25.1
2017-08-16T10:17:12.736Z,25.2
2017-08-16T10:18:14.161Z,25.2
2017-08-16T10:19:35.669Z,25.2
2017-08-16T10:20:37.089Z,25.1
2017-08-16T10:21:58.761Z,25.0
2017-08-16T10:23:00.183Z,25.0
2017-08-16T10:24:22.186Z,25.0
2017-08-16T10:25:23.608Z,25.0
2017-08-16T10:26:45.141Z,24.8
2017-08-16T10:27:46.559Z,24.7
2017-08-16T10:29:08.079Z,24.7
2017-08-16T10:30:09.499Z,24.5
2017-08-16T10:31:31.177Z,24.6
2017-08-16T10:32:32.596Z,24.6
2017-08-16T10:33:54.104Z,24.7
2017-08-16T10:34:55.525Z,24.7
2017-08-16T10:36:17.190Z,24.9
2017-08-16T10:37:18.612Z,25.0
2017-08-16T10:38:40.125Z,25.1
2017-08-16T10:39:41.545Z,25.2
2017-08-16T10:41:03.069Z,25.4
2017-08-16T10:42:04.490Z,25.5
2017-08-16T10:43:26.220Z,25.6
2017-08-16T10:44:27.641Z,25.8
2017-08-16T10:45:50.313Z,25.7
2017-08-16T10:46:51.737Z,25.6
2017-08-16T10:48:13.453Z,25.4
2017-08-16T10:49:14.878Z,25.5
2017-08-16T10:50:36.404Z,25.3
2017-08-16T10:51:37.823Z,25.2
2017-08-16T10:52:59.953Z,25.3
2017-08-16T10:54:01.338Z,25.4
2017-08-16T10:55:22.875Z,25.6
2017-08-16T10:56:24.293Z,25.6
2017-08-16T10:57:45.803Z,25.7
2017-08-16T10:58:47.226Z,25.6
2017-08-16T11:00:08.751Z,25.6
2017-08-16T11:01:10.187Z,25.5
2017-08-16T11:02:31.726Z,25.6
2017-08-16T11:03:33.166Z,25.7
2017-08-16T11:04:54.734Z,25.8
2017-08-16T11:05:56.152Z,25.9
2017-08-16T11:07:17.666Z,26.1
2017-08-16T11:08:19.104Z,26.0
2017-08-16T11:09:40.617Z,26.0
2017-08-16T11:10:42.177Z,26.0
2017-08-16T11:12:03.714Z,25.9
2017-08-16T11:13:05.141Z,25.9
2017-08-16T11:14:26.653Z,25.9
2017-08-16T11:15:28.079Z,25.9
2017-08-16T11:16:49.601Z,25.8
2017-08-16T11:17:51.029Z,25.9
2017-08-16T11:19:12.616Z,25.7
2017-08-16T11:20:14.061Z,25.8
2017-08-16T11:21:36.085Z,25.7
2017-08-16T11:22:37.504Z,25.9
2017-08-16T11:23:59.018Z,26.0
2017-08-16T11:25:00.441Z,26.0
2017-08-16T11:26:21.974Z,26.0
2017-08-16T11:27:23.393Z,26.1
2017-08-16T11:28:44.913Z,26.1
2017-08-16T11:29:46.600Z,25.8
2017-08-16T11:31:08.087Z,25.7
2017-08-16T11:32:09.507Z,25.7
2017-08-16T11:33:31.026Z,25.9
2017-08-16T11:34:32.446Z,25.9
2017-08-16T11:35:53.976Z,26.1
2017-08-16T11:36:55.400Z,26.1
2017-08-16T11:38:16.919Z,26.1
2017-08-16T11:39:18.341Z,26.1
2017-08-16T11:40:39.873Z,26.3
2017-08-16T11:41:41.293Z,26.4
2017-08-16T11:43:02.809Z,26.3
2017-08-16T11:44:04.229Z,26.2
2017-08-16T11:45:25.761Z,26.2
2017-08-16T11:46:27.201Z,26.3
2017-08-16T11:47:48.714Z,26.0
2017-08-16T11:48:50.135Z,26.1
2017-08-16T11:50:12.165Z,25.9
2017-08-16T11:51:13.651Z,26.1
2017-08-16T11:52:35.137Z,26.0
2017-08-16T11:53:36.557Z,26.1
2017-08-16T11:54:58.075Z,26.1
2017-08-16T11:56:38.979Z,25.9
2017-08-16T11:58:20.056Z,26.3
2017-08-16T11:59:21.476Z,26.3
2017-08-16T12:01:22.967Z,26.6
2017-08-16T12:03:04.353Z,26.9
2017-08-16T12:04:05.772Z,26.9
2017-08-16T12:05:27.304Z,27.0
2017-08-16T12:06:28.722Z,27.1
2017-08-16T12:07:50.437Z,27.2
2017-08-16T12:08:51.862Z,27.2
2017-08-16T12:10:13.596Z,27.2
2017-08-16T12:11:15.020Z,27.1
2017-08-16T12:12:36.752Z,27.1
2017-08-16T12:13:38.174Z,26.9
2017-08-16T12:14:59.892Z,26.7
2017-08-16T12:16:01.315Z,26.8
2017-08-16T12:17:22.846Z,26.6
2017-08-16T12:18:24.268Z,26.7
2017-08-16T12:19:46.001Z,26.7
2017-08-16T12:20:47.440Z,26.8
2017-08-16T12:22:08.964Z,26.9
2017-08-16T12:23:10.378Z,26.8
2017-08-16T12:24:31.893Z,26.8
2017-08-16T12:25:33.312Z,26.9
2017-08-16T12:26:54.846Z,26.9
2017-08-16T12:27:56.267Z,26.9
2017-08-16T12:29:17.782Z,27.0
2017-08-16T12:30:19.202Z,26.9
2017-08-16T12:31:40.736Z,27.0
2017-08-16T12:32:42.158Z,27.1
2017-08-16T12:34:03.811Z,27.1
2017-08-16T12:35:05.237Z,27.2
2017-08-16T12:36:26.992Z,27.3
2017-08-16T12:37:28.408Z,27.4
2017-08-16T12:38:49.937Z,27.2
2017-08-16T12:39:51.397Z,27.2
2017-08-16T12:41:13.423Z,27.1
2017-08-16T12:42:54.816Z,27.0
2017-08-16T12:44:36.186Z,27.2
2017-08-16T12:46:17.753Z,27.3
2017-08-16T12:47:19.121Z,27.3
2017-08-16T12:48:40.911Z,27.4
2017-08-16T12:49:42.295Z,27.5
2017-08-16T12:51:04.428Z,27.7
2017-08-16T12:52:05.861Z,27.6
2017-08-16T12:53:27.373Z,27.4
2017-08-16T12:54:29.694Z,27.4
2017-08-16T12:55:51.304Z,27.4
2017-08-16T12:56:52.732Z,27.3
2017-08-16T12:58:14.293Z,27.3
2017-08-16T12:59:15.717Z,27.2
2017-08-16T13:00:37.262Z,27.1
2017-08-16T13:01:39.815Z,27.3
2017-08-16T13:03:02.786Z,27.3
2017-08-16T13:04:04.250Z,27.5
2017-08-16T13:05:25.934Z,27.5
2017-08-16T13:06:27.353Z,27.4
2017-08-16T13:07:48.895Z,27.5
2017-08-16T13:08:50.407Z,27.6
2017-08-16T13:10:11.931Z,27.5
2017-08-16T13:11:13.361Z,27.5
2017-08-16T13:12:34.888Z,27.5
2017-08-16T13:13:36.409Z,27.4
2017-08-16T13:14:58.231Z,27.5
2017-08-16T13:15:59.710Z,27.5
2017-08-16T13:17:21.773Z,27.5
2017-08-16T13:18:23.280Z,27.5
2017-08-16T13:19:44.977Z,27.6
2017-08-16T13:20:46.516Z,27.7
2017-08-16T13:22:08.233Z,27.8
2017-08-16T13:23:09.690Z,27.9
2017-08-16T13:24:31.222Z,27.8
2017-08-16T13:25:33.014Z,27.8
2017-08-16T13:26:54.578Z,27.8
2017-08-16T13:27:56.010Z,27.9
2017-08-16T13:29:17.855Z,27.8
2017-08-16T13:30:19.334Z,27.8
2017-08-16T13:31:40.929Z,27.7
2017-08-16T13:32:42.508Z,27.7
2017-08-16T13:34:04.034Z,27.9
2017-08-16T13:35:05.502Z,28.0
2017-08-16T13:36:27.114Z,28.1
2017-08-16T13:37:28.544Z,28.2
2017-08-16T13:38:50.059Z,28.3
2017-08-16T13:39:51.488Z,28.2
2017-08-16T13:41:13.025Z,28.2
2017-08-16T13:42:14.456Z,28.1
2017-08-16T13:43:35.970Z,28.0
2017-08-16T13:44:37.470Z,28.1
2017-08-16T13:45:59.085Z,28.2
2017-08-16T13:47:00.509Z,28.4
2017-08-16T13:48:22.038Z,28.4
2017-08-16T13:49:23.463Z,28.6
2017-08-16T13:50:44.980Z,28.6
2017-08-16T13:51:46.399Z,28.6
2017-08-16T13:53:07.934Z,28.6
2017-08-16T13:54:09.406Z,28.6
2017-08-16T13:55:30.919Z,28.6
2017-08-16T13:56:32.342Z,28.5
2017-08-16T13:57:53.875Z,28.3
2017-08-16T13:58:55.345Z,28.5
2017-08-16T14:00:17.122Z,28.4
2017-08-16T14:01:18.604Z,28.4
2017-08-16T14:02:41.337Z,28.5
2017-08-16T14:03:42.760Z,28.6
2017-08-16T14:05:04.275Z,28.4
2017-08-16T14:06:05.696Z,28.4
2017-08-16T14:07:27.431Z,28.5
2017-08-16T14:08:28.855Z,28.5
2017-08-16T14:09:51.574Z,28.3
2017-08-16T14:10:53.065Z,28.2
2017-08-16T14:12:14.862Z,28.1
2017-08-16T14:13:16.292Z,28.0
2017-08-16T14:14:37.825Z,28.0
2017-08-16T14:15:39.250Z,28.0
2017-08-16T14:17:00.784Z,27.8
2017-08-16T14:18:02.353Z,27.9
2017-08-16T14:19:24.297Z,27.8
2017-08-16T14:20:25.979Z,27.6
2017-08-16T14:21:48.135Z,27.5
2017-08-16T14:22:50.525Z,27.4
2017-08-16T14:24:13.252Z,27.4
2017-08-16T14:25:15.332Z,27.4
2017-08-16T14:26:36.925Z,27.4
2017-08-16T14:27:38.411Z,27.3
2017-08-16T14:28:59.985Z,27.4
2017-08-16T14:30:01.463Z,27.3
2017-08-16T14:31:23.232Z,27.3
2017-08-16T14:32:24.651Z,27.4
2017-08-16T14:33:46.373Z,27.4
2017-08-16T14:34:47.836Z,27.4
2017-08-16T14:36:09.548Z,27.3
2017-08-16T14:37:10.969Z,27.3
2017-08-16T14:38:32.485Z,27.2
2017-08-16T14:39:33.967Z,27.4
2017-08-16T14:40:56.098Z,27.6
2017-08-16T14:41:57.537Z,27.7
2017-08-16T14:43:19.071Z,27.6
2017-08-16T14:44:20.494Z,27.7
2017-08-16T14:45:43.012Z,27.8
2017-08-16T14:46:44.489Z,27.9
2017-08-16T14:48:06.279Z,28.0
2017-08-16T14:49:07.704Z,28.0
2017-08-16T14:50:29.220Z,28.0
2017-08-16T14:51:30.644Z,28.1
2017-08-16T14:52:52.182Z,28.1
2017-08-16T14:53:53.606Z,28.0
2017-08-16T14:55:15.127Z,28.2
2017-08-16T14:56:16.559Z,28.2
2017-08-16T14:57:38.249Z,28.2
2017-08-16T14:58:39.677Z,28.2
2017-08-16T15:00:02.189Z,28.4
2017-08-16T15:01:03.612Z,28.5
2017-08-16T15:02:25.381Z,28.5
2017-08-16T15:03:26.807Z,28.6
2017-08-16T15:04:48.323Z,28.6
2017-08-16T15:05:49.743Z,28.6
2017-08-16T15:07:11.487Z,28.6
2017-08-16T15:08:12.939Z,28.7
2017-08-16T15:09:34.460Z,28.6
2017-08-16T15:10:35.881Z,28.7
2017-08-16T15:11:57.412Z,28.7
2017-08-16T15:12:58.835Z,28.5
2017-08-16T15:14:20.355Z,28.4
2017-08-16T15:15:21.777Z,28.2
2017-08-16T15:16:43.506Z,28.0
2017-08-16T15:17:44.938Z,27.8
2017-08-16T15:19:06.460Z,27.8
2017-08-16T15:20:07.880Z,27.9
2017-08-16T15:21:29.603Z,27.7
2017-08-16T15:22:31.025Z,27.7
2017-08-16T15:23:52.549Z,27.5
2017-08-16T15:24:53.978Z,27.6
2017-08-16T15:26:15.707Z,27.6
2017-08-16T15:27:17.128Z,27.7
2017-08-16T15:28:38.667Z,27.8
2017-08-16T15:29:40.108Z,27.9
2017-08-16T15:31:01.794Z,27.8
2017-08-16T15:32:03.211Z,27.8
2017-08-16T15:33:25.238Z,27.9
2017-08-16T15:34:26.662Z,27.9
2017-08-16T15:35:48.177Z,27.9
2017-08-16T15:36:49.603Z,27.8
2017-08-16T15:38:11.132Z,27.7
2017-08-16T15:39:13.477Z,27.7
2017-08-16T15:40:35.135Z,27.7
2017-08-16T15:41:36.669Z,27.7
2017-08-16T15:42:58.548Z,27.8
2017-08-16T15:44:01.846Z,27.8
2017-08-16T15:45:25.654Z,27.7
2017-08-16T15:46:27.102Z,27.7
2017-08-16T15:47:48.822Z,27.8
2017-08-16T15:48:50.248Z,27.9
2017-08-16T15:50:11.962Z,28.0
2017-08-16T15:51:13.410Z,27.8
2017-08-16T15:52:34.950Z,27.8
2017-08-16T15:53:36.369Z,27.8
2017-08-16T15:54:58.068Z,27.8
2017-08-16T15:55:59.491Z,27.7
2017-08-16T15:57:21.032Z,27.7
2017-08-16T15:58:22.454Z,27.6
2017-08-16T15:59:44.165Z,27.6
2017-08-16T16:00:45.590Z,27.5
2017-08-16T16:02:07.136Z,27.7
2017-08-16T16:03:08.553Z,27.7
2017-08-16T16:04:30.283Z,27.5
2017-08-16T16:05:31.708Z,27.5
2017-08-16T16:06:53.244Z,27.5
2017-08-16T16:07:54.664Z,27.5
2017-08-16T16:09:16.185Z,27.4
2017-08-16T16:10:17.620Z,27.4
2017-08-16T16:11:39.134Z,27.3
2017-08-16T16:12:40.560Z,27.4
2017-08-16T16:14:02.572Z,27.4
2017-08-16T16:15:03.992Z,27.2
2017-08-16T16:16:26.041Z,27.0
2017-08-16T16:17:27.462Z,27.0
2017-08-16T16:19:29.463Z,27.0
2017-08-16T16:20:30.863Z,27.0
2017-08-16T16:21:52.890Z,26.9
2017-08-16T16:22:54.309Z,26.9
2017-08-16T16:24:16.317Z,26.7
2017-08-16T16:25:17.739Z,26.8
2017-08-16T16:26:39.272Z,26.8
2017-08-16T16:27:40.693Z,26.8
2017-08-16T16:29:02.384Z,26.8
2017-08-16T16:30:03.808Z,26.8
2017-08-16T16:31:25.327Z,26.8
2017-08-16T16:32:26.750Z,26.8
2017-08-16T16:33:48.508Z,26.8
2017-08-16T16:34:49.926Z,26.8
2017-08-16T16:36:11.433Z,26.8
2017-08-16T16:37:12.858Z,26.8
2017-08-16T16:38:34.395Z,26.8
2017-08-16T16:39:35.816Z,26.9
2017-08-16T16:40:57.457Z,26.8
2017-08-16T16:41:58.882Z,26.8
2017-08-16T16:43:20.417Z,26.8
2017-08-16T16:44:22.301Z,26.8
2017-08-16T16:45:45.858Z,26.6
2017-08-16T16:46:47.261Z,26.6
2017-08-16T16:48:08.837Z,26.5
2017-08-16T16:49:10.236Z,26.5
2017-08-16T16:50:32.078Z,26.5
2017-08-16T16:51:33.501Z,26.5
2017-08-16T16:52:55.404Z,26.6
2017-08-16T16:53:56.824Z,26.6
2017-08-16T16:55:18.482Z,26.6
2017-08-16T16:56:19.906Z,26.7
2017-08-16T16:57:41.600Z,26.7
2017-08-16T16:58:43.027Z,26.6
2017-08-16T17:00:05.657Z,26.6
2017-08-16T17:01:07.327Z,26.6
2017-08-16T17:02:28.930Z,26.5
2017-08-16T17:03:30.371Z,26.6
2017-08-16T17:04:52.243Z,26.7
2017-08-16T17:05:53.642Z,26.6
2017-08-16T17:07:15.400Z,26.3
2017-08-16T17:08:16.896Z,26.3
2017-08-16T17:09:38.635Z,26.2
2017-08-16T17:10:40.058Z,26.2
2017-08-16T17:12:01.979Z,26.3
2017-08-16T17:13:03.403Z,26.3
2017-08-16T17:14:25.104Z,26.4
2017-08-16T17:15:26.673Z,26.4
2017-08-16T17:16:49.945Z,26.4
2017-08-16T17:17:51.508Z,26.4
2017-08-16T17:19:13.194Z,26.4
2017-08-16T17:20:14.618Z,26.3
2017-08-16T17:21:37.368Z,26.3
2017-08-16T17:22:38.770Z,26.3
2017-08-16T17:24:00.309Z,26.2
2017-08-16T17:25:01.896Z,26.1
2017-08-16T17:26:23.580Z,26.1
2017-08-16T17:27:25.777Z,26.1
2017-08-16T17:28:47.630Z,25.9
2017-08-16T17:29:49.205Z,26.0
2017-08-16T17:31:10.717Z,26.0
2017-08-16T17:32:12.197Z,26.0
2017-08-16T17:33:33.720Z,25.9
2017-08-16T17:34:35.214Z,26.0
2017-08-16T17:35:56.725Z,25.9
2017-08-16T17:36:58.257Z,25.9
2017-08-16T17:38:20.225Z,25.9
2017-08-16T17:39:21.637Z,25.8
2017-08-16T17:40:43.150Z,25.8
2017-08-16T17:41:44.570Z,25.7
2017-08-16T17:43:06.098Z,25.6
2017-08-16T17:44:07.563Z,25.6
2017-08-16T17:45:29.090Z,25.5
2017-08-16T17:46:30.517Z,25.5
2017-08-16T17:47:52.048Z,25.5
2017-08-16T17:48:53.469Z,25.5
2017-08-16T17:50:15.003Z,25.6
2017-08-16T17:51:16.423Z,25.6
2017-08-16T17:52:38.033Z,25.5
2017-08-16T17:53:39.913Z,25.5
2017-08-16T17:55:01.912Z,25.5
2017-08-16T17:56:03.330Z,25.3
2017-08-16T17:57:24.899Z,25.4
2017-08-16T17:58:26.320Z,25.3
2017-08-16T17:59:47.829Z,25.3
2017-08-16T18:00:49.249Z,25.2
2017-08-16T18:02:10.758Z,25.2
2017-08-16T18:03:12.177Z,25.1
2017-08-16T18:04:33.704Z,25.0
2017-08-16T18:05:35.135Z,24.8
2017-08-16T18:06:56.637Z,24.7
2017-08-16T18:07:58.064Z,24.6
2017-08-16T18:09:19.617Z,24.6
2017-08-16T18:10:21.039Z,24.6
2017-08-16T18:11:42.550Z,24.5
2017-08-16T18:12:43.966Z,24.5
2017-08-16T18:14:05.494Z,24.4
2017-08-16T18:15:07.161Z,24.3
2017-08-16T18:16:28.666Z,24.3
2017-08-16T18:17:30.099Z,24.3
2017-08-16T18:18:51.632Z,24.2
2017-08-16T18:19:53.048Z,24.2
2017-08-16T18:21:14.594Z,24.1
2017-08-16T18:22:16.008Z,24.0
2017-08-16T18:23:37.533Z,24.1
2017-08-16T18:24:38.953Z,24.1
2017-08-16T18:26:00.459Z,24.1
2017-08-16T18:27:01.968Z,24.1
2017-08-16T18:28:23.494Z,24.2
2017-08-16T18:29:24.912Z,24.3
2017-08-16T18:30:46.420Z,24.2
2017-08-16T18:31:47.838Z,24.3
2017-08-16T18:33:09.362Z,24.3
2017-08-16T18:34:10.782Z,24.3
2017-08-16T18:35:32.287Z,24.3
2017-08-16T18:36:33.706Z,24.4
2017-08-16T18:37:55.228Z,24.3
2017-08-16T18:38:56.659Z,24.3
2017-08-16T18:40:18.170Z,24.2
2017-08-16T18:41:19.587Z,24.3
2017-08-16T18:42:41.646Z,24.2
2017-08-16T18:43:43.083Z,24.1
2017-08-16T18:45:04.648Z,24.0
2017-08-16T18:46:06.069Z,24.0
2017-08-16T18:47:27.617Z,23.9
2017-08-16T18:48:29.034Z,23.9
2017-08-16T18:49:50.606Z,23.9
2017-08-16T18:50:52.037Z,23.9
2017-08-16T18:52:13.685Z,23.9
2017-08-16T18:53:15.111Z,23.8
2017-08-16T18:54:36.695Z,23.7
2017-08-16T18:55:38.377Z,23.7
2017-08-16T18:56:59.893Z,23.8
2017-08-16T18:58:01.358Z,23.6
2017-08-16T18:59:23.837Z,23.7
2017-08-16T19:00:25.646Z,23.7
2017-08-16T19:01:47.301Z,23.7
2017-08-16T19:02:48.717Z,23.6
2017-08-16T19:04:10.242Z,23.5
2017-08-16T19:05:11.661Z,23.5
2017-08-16T19:06:33.164Z,23.5
2017-08-16T19:07:34.579Z,23.5
2017-08-16T19:08:56.102Z,23.5
2017-08-16T19:09:57.520Z,23.5
2017-08-16T19:11:19.021Z,23.5
2017-08-16T19:12:20.439Z,23.6
2017-08-16T19:13:41.976Z,23.5
2017-08-16T19:14:43.392Z,23.5
2017-08-16T19:16:04.899Z,23.4
2017-08-16T19:17:06.318Z,23.5
2017-08-16T19:18:28.228Z,23.4
2017-08-16T19:19:29.642Z,23.4
2017-08-16T19:20:51.143Z,23.5
2017-08-16T19:21:52.559Z,23.4
2017-08-16T19:23:14.080Z,23.4
2017-08-16T19:24:15.501Z,23.3
2017-08-16T19:25:37.993Z,23.4
2017-08-16T19:26:39.407Z,23.3
2017-08-16T19:28:00.906Z,23.4
2017-08-16T19:29:02.322Z,23.3
2017-08-16T19:30:23.846Z,23.3
2017-08-16T19:31:25.638Z,23.2
2017-08-16T19:32:47.160Z,23.2
2017-08-16T19:33:48.594Z,23.2
2017-08-16T19:35:10.093Z,23.2
2017-08-16T19:36:11.602Z,23.2
2017-08-16T19:37:33.108Z,23.2
2017-08-16T19:38:34.518Z,23.2
2017-08-16T19:39:56.279Z,23.1
2017-08-16T19:40:57.693Z,23.0
2017-08-16T19:42:19.398Z,23.0
2017-08-16T19:43:20.813Z,23.0
2017-08-16T19:44:42.336Z,23.1
2017-08-16T19:45:43.764Z,23.0
2017-08-16T19:47:05.758Z,23.0
2017-08-16T19:48:07.172Z,22.9
2017-08-16T19:49:28.696Z,22.9
2017-08-16T19:50:30.112Z,22.9
2017-08-16T19:51:51.613Z,22.9
2017-08-16T19:52:53.043Z,22.7
2017-08-16T19:54:15.267Z,22.7
